createdAt,value
2023-01-25T00:01:54.232Z,102358.97
2023-01-25T00:04:21.408Z,102361.16
2023-01-25T00:06:48.222Z,102359.69
2023-01-25T00:09:14.823Z,102356.38
2023-01-25T00:11:41.348Z,102356.41
2023-01-25T00:14:07.919Z,102351.25
2023-01-25T00:16:34.258Z,102348.84
2023-01-25T00:19:00.587Z,102351.63
2023-01-25T00:21:27.084Z,102345.19
2023-01-25T00:23:53.707Z,102341.75
2023-01-25T00:26:20.386Z,102341.03
2023-01-25T00:28:54.225Z,102341.03
2023-01-25T00:32:17.226Z,102346.28
2023-01-25T00:34:45.035Z,102343.47
2023-01-25T00:37:20.934Z,102332.97
2023-01-25T00:39:47.647Z,102341.28
2023-01-25T00:42:15.525Z,102331.41
2023-01-25T00:44:41.949Z,102333.59
2023-01-25T00:47:10.063Z,102332.25
2023-01-25T00:49:37.634Z,102334.81
2023-01-25T00:52:04.204Z,102324.06
2023-01-25T00:54:30.634Z,102337.84
2023-01-25T00:56:57.002Z,102326.75
2023-01-25T00:59:24.397Z,102329.56
2023-01-25T01:01:51.519Z,102330.16
2023-01-25T01:04:18.518Z,102332.13
2023-01-25T01:07:03.596Z,102336.16
2023-01-25T01:09:29.923Z,102331.88
2023-01-25T01:11:56.253Z,102332.13
2023-01-25T01:15:18.873Z,102335.66
2023-01-25T01:18:41.352Z,102335.16
2023-01-25T01:21:10.333Z,102331.03
2023-01-25T01:23:36.771Z,102335.16
2023-01-25T01:26:04.783Z,102327.03
2023-01-25T01:28:32.215Z,102328.97
2023-01-25T01:31:02.103Z,102335.44
2023-01-25T01:33:28.712Z,102321.88
2023-01-25T01:35:55.075Z,102326.66
2023-01-25T01:38:21.526Z,102323.84
2023-01-25T01:40:48.627Z,102322.97
2023-01-25T01:43:20.491Z,102317.84
2023-01-25T01:45:49.801Z,102322.97
2023-01-25T01:48:36.621Z,102320.78
2023-01-25T01:51:11.226Z,102317.63
2023-01-25T01:53:37.491Z,102318.34
2023-01-25T01:56:08.128Z,102308.59
2023-01-25T01:58:35.545Z,102307.50
2023-01-25T02:01:02.029Z,102309.69
2023-01-25T02:03:29.111Z,102307.13
2023-01-25T02:06:06.321Z,102303.34
2023-01-25T02:08:34.441Z,102302.03
2023-01-25T02:11:01.084Z,102305.78
2023-01-25T02:13:28.085Z,102304.31
2023-01-25T02:15:56.439Z,102301.28
2023-01-25T02:18:23.275Z,102302.13
2023-01-25T02:20:54.605Z,102298.38
2023-01-25T02:23:40.981Z,102295.28
2023-01-25T02:26:07.777Z,102300.31
2023-01-25T02:28:45.714Z,102292.25
2023-01-25T02:31:12.197Z,102303.97
2023-01-25T02:33:38.625Z,102301.16
2023-01-25T02:36:04.909Z,102299.22
2023-01-25T02:38:34.262Z,102298.59
2023-01-25T02:41:04.772Z,102300.03
2023-01-25T02:43:32.124Z,102300.31
2023-01-25T02:46:01.244Z,102297.50
2023-01-25T02:48:27.633Z,102288.72
2023-01-25T02:50:53.995Z,102301.50
2023-01-25T02:53:20.377Z,102297.38
2023-01-25T02:55:46.731Z,102298.22
2023-01-25T02:58:13.075Z,102287.88
2023-01-25T03:00:39.467Z,102300.56
2023-01-25T03:03:05.871Z,102288.34
2023-01-25T03:05:32.263Z,102284.06
2023-01-25T03:07:58.686Z,102293.59
2023-01-25T03:10:25.001Z,102287.50
2023-01-25T03:12:51.327Z,102289.06
2023-01-25T03:15:17.687Z,102284.59
2023-01-25T03:17:44.058Z,102277.75
2023-01-25T03:20:11.128Z,102282.03
2023-01-25T03:22:37.499Z,102275.56
2023-01-25T03:25:04.440Z,102270.19
2023-01-25T03:27:31.000Z,102271.28
2023-01-25T03:29:57.348Z,102265.94
2023-01-25T03:32:23.890Z,102260.09
2023-01-25T03:34:50.239Z,102263.50
2023-01-25T03:37:16.596Z,102261.19
2023-01-25T03:39:42.930Z,102258.50
2023-01-25T03:42:09.296Z,102260.69
2023-01-25T03:44:35.634Z,102258.38
2023-01-25T03:47:02.082Z,102250.34
2023-01-25T03:49:28.572Z,102256.66
2023-01-25T03:51:54.898Z,102251.31
2023-01-25T03:54:21.252Z,102253.88
2023-01-25T03:56:47.576Z,102261.19
2023-01-25T03:59:13.974Z,102253.88
2023-01-25T04:01:40.350Z,102253.88
2023-01-25T04:04:06.710Z,102251.53
2023-01-25T04:06:33.076Z,102251.78
2023-01-25T04:08:59.418Z,102245.84
2023-01-25T04:11:25.901Z,102254.25
2023-01-25T04:13:52.292Z,102251.69
2023-01-25T04:16:18.735Z,102247.53
2023-01-25T04:18:45.120Z,102248.88
2023-01-25T04:21:11.470Z,102247.66
2023-01-25T04:23:37.794Z,102248.50
2023-01-25T04:26:06.919Z,102241.94
2023-01-25T04:28:34.951Z,102246.41
2023-01-25T04:31:01.596Z,102242.19
2023-01-25T04:33:27.950Z,102244.75
2023-01-25T04:35:54.295Z,102239.25
2023-01-25T04:38:20.864Z,102236.19
2023-01-25T04:40:47.499Z,102225.69
2023-01-25T04:43:15.769Z,102230.22
2023-01-25T04:45:42.142Z,102225.59
2023-01-25T04:48:10.129Z,102222.78
2023-01-25T04:50:37.498Z,102218.78
2023-01-25T04:53:04.570Z,102219.63
2023-01-25T04:55:33.426Z,102217.66
2023-01-25T04:58:00.620Z,102209.13
2023-01-25T05:00:28.051Z,102216.44
2023-01-25T05:02:54.595Z,102213.41
2023-01-25T05:05:21.089Z,102204.03
2023-01-25T05:07:47.447Z,102203.28
2023-01-25T05:10:14.058Z,102206.34
2023-01-25T05:12:40.461Z,102198.44
2023-01-25T05:15:07.743Z,102201.09
2023-01-25T05:17:34.229Z,102199.88
2023-01-25T05:20:00.630Z,102197.19
2023-01-25T05:22:27.006Z,102192.22
2023-01-25T05:24:53.742Z,102195.13
2023-01-25T05:27:20.671Z,102200.13
2023-01-25T05:29:49.749Z,102191.72
2023-01-25T05:32:18.219Z,102193.56
2023-01-25T05:34:45.249Z,102196.72
2023-01-25T05:37:14.405Z,102187.94
2023-01-25T05:39:40.937Z,102193.19
2023-01-25T05:42:18.083Z,102181.72
2023-01-25T05:44:47.056Z,102186.25
2023-01-25T05:47:15.893Z,102186.84
2023-01-25T05:49:42.270Z,102180.63
2023-01-25T05:52:13.809Z,102182.34
2023-01-25T05:54:40.176Z,102170.03
2023-01-25T05:57:06.481Z,102173.94
2023-01-25T05:59:32.787Z,102182.09
2023-01-25T06:01:59.150Z,102173.56
2023-01-25T06:04:25.628Z,102176.97
2023-01-25T06:06:52.758Z,102169.81
2023-01-25T06:09:19.089Z,102166.38
2023-01-25T06:11:45.712Z,102172.97
2023-01-25T06:14:12.398Z,102168.69
2023-01-25T06:16:38.894Z,102170.38
2023-01-25T06:19:06.394Z,102182.59
2023-01-25T06:21:35.204Z,102179.91
2023-01-25T06:24:01.651Z,102180.16
2023-01-25T06:26:28.091Z,102169.19
2023-01-25T06:28:54.533Z,102169.53
2023-01-25T06:31:21.047Z,102163.94
2023-01-25T06:33:49.384Z,102168.44
2023-01-25T06:36:18.242Z,102167.25
2023-01-25T06:38:48.533Z,102166.50
2023-01-25T06:41:15.008Z,102174.66
2023-01-25T06:43:41.542Z,102173.47
2023-01-25T06:46:09.445Z,102179.06
2023-01-25T06:48:36.029Z,102187.47
2023-01-25T06:51:08.070Z,102179.31
2023-01-25T06:53:36.608Z,102184.28
2023-01-25T06:56:10.064Z,102180.63
2023-01-25T06:58:37.643Z,102170.53
2023-01-25T07:01:10.824Z,102169.53
2023-01-25T07:03:37.218Z,102169.31
2023-01-25T07:06:06.616Z,102173.56
2023-01-25T07:08:33.749Z,102165.53
2023-01-25T07:11:02.562Z,102166.03
2023-01-25T07:13:30.079Z,102169.91
2023-01-25T07:16:07.273Z,102170.41
2023-01-25T07:18:34.408Z,102176.63
2023-01-25T07:21:29.587Z,102168.34
2023-01-25T07:24:01.025Z,102167.25
2023-01-25T07:26:27.431Z,102174.41
2023-01-25T07:28:53.985Z,102175.03
2023-01-25T07:31:20.986Z,102171.38
2023-01-25T07:33:51.462Z,102168.69
2023-01-25T07:36:17.995Z,102178.69
2023-01-25T07:38:44.548Z,102176.22
2023-01-25T07:41:10.982Z,102169.19
2023-01-25T07:43:37.374Z,102172.09
2023-01-25T07:46:09.903Z,102167.84
2023-01-25T07:48:36.264Z,102169.53
2023-01-25T07:51:22.601Z,102175.50
2023-01-25T07:53:55.986Z,102162.97
2023-01-25T07:56:27.716Z,102163.47
2023-01-25T07:58:57.867Z,102168.59
2023-01-25T08:01:26.313Z,102176.47
2023-01-25T08:03:52.987Z,102169.78
2023-01-25T08:06:31.022Z,102167.97
2023-01-25T08:08:58.585Z,102165.03
2023-01-25T08:11:27.779Z,102162.13
2023-01-25T08:13:54.344Z,102166.50
2023-01-25T08:16:23.022Z,102165.88
2023-01-25T08:18:51.656Z,102164.06
2023-01-25T08:21:18.717Z,102171.72
2023-01-25T08:23:45.262Z,102168.31
2023-01-25T08:26:13.860Z,102166.63
2023-01-25T08:28:40.296Z,102167.22
2023-01-25T08:31:15.547Z,102168.56
2023-01-25T08:33:45.173Z,102170.25
2023-01-25T08:36:11.581Z,102166.00
2023-01-25T08:38:38.164Z,102165.88
2023-01-25T08:41:12.728Z,102163.69
2023-01-25T08:43:39.137Z,102159.66
2023-01-25T08:46:05.943Z,102155.06
2023-01-25T08:48:32.690Z,102150.16
2023-01-25T08:50:59.800Z,102151.16
2023-01-25T08:53:30.514Z,102150.53
2023-01-25T08:55:57.091Z,102144.81
2023-01-25T08:58:23.481Z,102146.91
2023-01-25T09:00:49.875Z,102148.97
2023-01-25T09:03:18.038Z,102150.31
2023-01-25T09:05:44.680Z,102148.69
2023-01-25T09:08:11.253Z,102142.25
2023-01-25T09:10:37.607Z,102143.00
2023-01-25T09:13:04.252Z,102137.78
2023-01-25T09:15:30.642Z,102133.50
2023-01-25T09:17:57.273Z,102145.91
2023-01-25T09:20:24.429Z,102135.31
2023-01-25T09:22:50.832Z,102133.38
2023-01-25T09:25:17.228Z,102129.25
2023-01-25T09:27:43.570Z,102124.88
2023-01-25T09:30:18.134Z,102127.91
2023-01-25T09:32:45.124Z,102122.91
2023-01-25T09:35:11.557Z,102124.13
2023-01-25T09:37:38.899Z,102121.22
2023-01-25T09:40:07.443Z,102127.66
2023-01-25T09:43:05.173Z,102125.72
2023-01-25T09:45:36.258Z,102129.47
2023-01-25T09:48:26.223Z,102124.00
2023-01-25T09:51:11.491Z,102118.28
2023-01-25T09:53:47.111Z,102126.81
2023-01-25T09:56:20.506Z,102121.69
2023-01-25T09:58:48.946Z,102122.41
2023-01-25T10:01:37.429Z,102127.53
2023-01-25T10:04:10.774Z,102130.19
2023-01-25T10:06:40.823Z,102120.84
2023-01-25T10:09:21.996Z,102120.69
2023-01-25T10:11:48.409Z,102119.22
2023-01-25T10:14:16.673Z,102120.34
2023-01-25T10:16:46.027Z,102109.50
2023-01-25T10:19:44.494Z,102100.00
2023-01-25T10:22:14.848Z,102108.88
2023-01-25T10:25:15.274Z,102096.75
2023-01-25T10:27:57.673Z,102091.63
2023-01-25T10:30:48.726Z,102084.69
2023-01-25T10:33:18.676Z,102086.00
2023-01-25T10:35:47.498Z,102074.34
2023-01-25T10:38:28.319Z,102079.69
2023-01-25T10:40:58.652Z,102071.41
2023-01-25T10:43:25.071Z,102066.56
2023-01-25T10:45:51.792Z,102067.50
2023-01-25T10:48:23.569Z,102063.25
2023-01-25T10:50:55.201Z,102060.81
2023-01-25T10:53:32.222Z,102050.22
2023-01-25T10:56:00.494Z,102048.16
2023-01-25T10:58:30.366Z,102048.03
2023-01-25T11:00:56.947Z,102036.97
2023-01-25T11:03:23.424Z,102033.28
2023-01-25T11:05:54.857Z,102034.25
2023-01-25T11:08:32.907Z,102030.00
2023-01-25T11:11:00.026Z,102021.84
2023-01-25T11:13:28.203Z,102017.13
2023-01-25T11:16:28.399Z,102015.56
2023-01-25T11:18:56.314Z,102014.69
2023-01-25T11:21:25.621Z,102010.94
2023-01-25T11:24:08.868Z,102013.34
2023-01-25T11:26:37.718Z,102007.63
2023-01-25T11:29:19.095Z,102006.66
2023-01-25T11:31:51.510Z,102007.03
2023-01-25T11:34:22.159Z,101995.94
2023-01-25T11:37:06.802Z,101994.41
2023-01-25T11:39:54.239Z,101984.97
2023-01-25T11:42:27.734Z,101983.75
2023-01-25T11:45:09.221Z,101985.59
2023-01-25T11:47:58.067Z,101968.94
2023-01-25T11:50:36.767Z,101964.53
2023-01-25T11:53:30.391Z,101952.75
2023-01-25T11:56:18.076Z,101950.53
2023-01-25T11:59:05.898Z,101939.69
2023-01-25T12:01:48.635Z,101942.03
2023-01-25T12:04:46.041Z,101936.28
2023-01-25T12:07:20.719Z,101933.03
2023-01-25T12:09:50.225Z,101927.06
2023-01-25T12:12:25.675Z,101921.28
2023-01-25T12:14:57.921Z,101914.13
2023-01-25T12:17:41.073Z,101911.00
2023-01-25T12:20:31.534Z,101911.94
2023-01-25T12:23:12.714Z,101909.00
2023-01-25T12:25:58.387Z,101894.03
2023-01-25T12:28:28.683Z,101898.22
2023-01-25T12:31:16.591Z,101879.66
2023-01-25T12:33:58.235Z,101879.91
2023-01-25T12:36:32.075Z,101869.06
2023-01-25T12:39:10.640Z,101874.31
2023-01-25T12:41:41.646Z,101869.19
2023-01-25T12:44:15.369Z,101870.72
2023-01-25T12:46:54.965Z,101859.13
2023-01-25T12:49:27.126Z,101856.38
2023-01-25T12:51:53.989Z,101855.63
2023-01-25T12:54:25.131Z,101854.16
2023-01-25T12:57:14.999Z,101851.22
2023-01-25T12:59:54.498Z,101853.84
2023-01-25T13:02:42.256Z,101847.63
2023-01-25T13:05:22.801Z,101850.78
2023-01-25T13:08:06.840Z,101832.00
2023-01-25T13:10:40.448Z,101834.84
2023-01-25T13:13:35.864Z,101827.03
2023-01-25T13:16:29.738Z,101818.06
2023-01-25T13:18:56.894Z,101809.84
2023-01-25T13:21:41.494Z,101795.97
2023-01-25T13:24:15.272Z,101791.09
2023-01-25T13:26:52.646Z,101789.41
2023-01-25T13:29:45.882Z,101787.94
2023-01-25T13:32:34.202Z,101778.56
2023-01-25T13:35:01.082Z,101776.38
2023-01-25T13:37:34.488Z,101775.75
2023-01-25T13:40:06.329Z,101769.81
2023-01-25T13:42:34.583Z,101765.56
2023-01-25T13:45:18.663Z,101765.97
2023-01-25T13:47:59.648Z,101763.19
2023-01-25T13:50:27.696Z,101760.91
2023-01-25T13:53:02.629Z,101765.91
2023-01-25T13:55:30.011Z,101758.97
2023-01-25T13:58:16.780Z,101750.53
2023-01-25T14:01:07.832Z,101750.34
2023-01-25T14:03:45.795Z,101749.06
2023-01-25T14:06:37.271Z,101746.50
2023-01-25T14:09:16.413Z,101739.69
2023-01-25T14:11:56.813Z,101729.06
2023-01-25T14:14:29.615Z,101735.06
2023-01-25T14:17:16.009Z,101732.63
2023-01-25T14:19:44.529Z,101724.97
2023-01-25T14:22:20.148Z,101715.38
2023-01-25T14:25:11.161Z,101719.50
2023-01-25T14:27:59.466Z,101715.94
2023-01-25T14:30:27.698Z,101707.50
2023-01-25T14:32:54.938Z,101704.78
2023-01-25T14:35:36.045Z,101710.94
2023-01-25T14:38:26.642Z,101707.47
2023-01-25T14:40:59.145Z,101700.22
2023-01-25T14:43:25.991Z,101695.00
2023-01-25T14:45:52.356Z,101687.81
2023-01-25T14:48:37.113Z,101688.06
2023-01-25T14:51:25.480Z,101681.22
2023-01-25T14:54:00.133Z,101675.44
2023-01-25T14:56:26.336Z,101676.63
2023-01-25T14:58:59.494Z,101669.56
2023-01-25T15:01:32.997Z,101670.31
2023-01-25T15:03:59.399Z,101666.16
2023-01-25T15:06:25.824Z,101668.41
2023-01-25T15:08:52.291Z,101666.28
2023-01-25T15:11:46.023Z,101660.69
2023-01-25T15:14:18.526Z,101651.19
2023-01-25T15:16:45.308Z,101652.81
2023-01-25T15:19:26.233Z,101649.91
2023-01-25T15:21:54.815Z,101644.91
2023-01-25T15:24:21.627Z,101649.50
2023-01-25T15:26:52.829Z,101644.50
2023-01-25T15:29:26.959Z,101647.56
2023-01-25T15:31:54.895Z,101645.00
2023-01-25T15:34:24.973Z,101639.41
2023-01-25T15:36:51.455Z,101634.66
2023-01-25T15:39:21.158Z,101640.91
2023-01-25T15:41:48.321Z,101632.00
2023-01-25T15:44:14.947Z,101634.91
2023-01-25T15:46:45.194Z,101623.00
2023-01-25T15:49:18.537Z,101631.56
2023-01-25T15:51:44.867Z,101630.38
2023-01-25T15:54:11.203Z,101627.94
2023-01-25T15:56:37.808Z,101633.19
2023-01-25T15:59:11.188Z,101629.38
2023-01-25T16:01:37.600Z,101631.34
2023-01-25T16:04:04.040Z,101632.19
2023-01-25T16:06:38.129Z,101626.41
2023-01-25T16:09:14.740Z,101630.66
2023-01-25T16:11:41.123Z,101628.03
2023-01-25T16:14:07.454Z,101624.69
2023-01-25T16:16:38.845Z,101629.97
2023-01-25T16:19:05.212Z,101638.25
2023-01-25T16:21:31.617Z,101620.28
2023-01-25T16:23:58.050Z,101625.22
2023-01-25T16:26:25.567Z,101625.66
2023-01-25T16:28:52.083Z,101628.94
2023-01-25T16:31:31.221Z,101628.88
2023-01-25T16:33:58.781Z,101631.16
2023-01-25T16:36:25.482Z,101631.25
2023-01-25T16:38:52.292Z,101623.28
2023-01-25T16:41:18.725Z,101622.50
2023-01-25T16:43:46.905Z,101622.75
2023-01-25T16:46:17.266Z,101625.13
2023-01-25T16:48:44.346Z,101627.84
2023-01-25T16:51:20.674Z,101622.25
2023-01-25T16:53:47.875Z,101621.34
2023-01-25T16:56:22.310Z,101616.75
2023-01-25T16:58:49.903Z,101614.34
2023-01-25T17:01:17.405Z,101605.97
2023-01-25T17:03:44.119Z,101606.56
2023-01-25T17:06:19.493Z,101606.47
2023-01-25T17:08:49.541Z,101601.28
2023-01-25T17:11:18.771Z,101596.66
2023-01-25T17:13:50.185Z,101593.94
2023-01-25T17:16:17.594Z,101594.94
2023-01-25T17:18:43.933Z,101593.84
2023-01-25T17:21:12.466Z,101590.09
2023-01-25T17:23:38.846Z,101591.16
2023-01-25T17:26:07.002Z,101589.72
2023-01-25T17:28:33.414Z,101586.41
2023-01-25T17:31:00.046Z,101567.84
2023-01-25T17:33:26.887Z,101573.44
2023-01-25T17:35:58.193Z,101567.66
2023-01-25T17:38:28.162Z,101569.09
2023-01-25T17:40:55.259Z,101572.16
2023-01-25T17:43:21.625Z,101565.38
2023-01-25T17:45:48.026Z,101571.41
2023-01-25T17:48:14.532Z,101561.81
2023-01-25T17:50:40.908Z,101566.91
2023-01-25T17:53:07.399Z,101553.84
2023-01-25T17:55:37.237Z,101558.09
2023-01-25T17:58:03.910Z,101552.06
2023-01-25T18:00:30.317Z,101549.34
2023-01-25T18:02:58.326Z,101546.97
2023-01-25T18:05:27.284Z,101541.47
2023-01-25T18:07:53.664Z,101542.81
2023-01-25T18:10:20.039Z,101543.00
2023-01-25T18:13:03.653Z,101537.41
2023-01-25T18:15:30.726Z,101536.72
2023-01-25T18:17:57.109Z,101530.88
2023-01-25T18:20:23.459Z,101525.19
2023-01-25T18:22:50.015Z,101515.19
2023-01-25T18:25:36.746Z,101520.44
2023-01-25T18:28:03.441Z,101515.97
2023-01-25T18:30:29.735Z,101515.03
2023-01-25T18:33:02.217Z,101514.78
2023-01-25T18:35:29.265Z,101506.78
2023-01-25T18:37:55.797Z,101512.47
2023-01-25T18:40:22.134Z,101508.75
2023-01-25T18:42:50.458Z,101502.13
2023-01-25T18:45:16.854Z,101509.84
2023-01-25T18:47:43.190Z,101504.75
2023-01-25T18:50:10.339Z,101507.38
2023-01-25T18:52:36.715Z,101494.91
2023-01-25T18:55:03.104Z,101493.06
2023-01-25T18:57:29.488Z,101485.34
2023-01-25T18:59:56.698Z,101492.16
2023-01-25T19:02:23.948Z,101491.25
2023-01-25T19:04:50.661Z,101490.09
2023-01-25T19:07:17.116Z,101490.00
2023-01-25T19:09:43.721Z,101489.69
2023-01-25T19:12:10.383Z,101492.31
2023-01-25T19:14:36.779Z,101485.09
2023-01-25T19:17:03.148Z,101484.00
2023-01-25T19:19:32.021Z,101479.41
2023-01-25T19:21:58.863Z,101473.50
2023-01-25T19:24:26.708Z,101467.22
2023-01-25T19:26:55.772Z,101457.84
2023-01-25T19:29:22.237Z,101457.00
2023-01-25T19:31:48.667Z,101462.63
2023-01-25T19:34:15.081Z,101452.66
2023-01-25T19:36:49.207Z,101462.88
2023-01-25T19:39:16.343Z,101455.09
2023-01-25T19:41:43.042Z,101450.19
2023-01-25T19:44:12.315Z,101454.50
2023-01-25T19:46:38.816Z,101448.06
2023-01-25T19:49:07.859Z,101450.19
2023-01-25T19:51:36.361Z,101444.59
2023-01-25T19:54:05.520Z,101443.25
2023-01-25T19:56:40.139Z,101433.69
2023-01-25T19:59:09.098Z,101425.97
2023-01-25T20:01:36.529Z,101433.44
2023-01-25T20:04:05.881Z,101435.13
2023-01-25T20:06:32.377Z,101432.91
2023-01-25T20:08:58.710Z,101421.56
2023-01-25T20:11:30.004Z,101423.44
2023-01-25T20:13:59.048Z,101420.09
2023-01-25T20:16:27.163Z,101410.88
2023-01-25T20:18:55.682Z,101417.41
2023-01-25T20:21:23.054Z,101414.00
2023-01-25T20:23:52.880Z,101422.41
2023-01-25T20:26:21.809Z,101418.59
2023-01-25T20:28:51.483Z,101420.19
2023-01-25T20:31:23.970Z,101413.34
2023-01-25T20:33:51.602Z,101414.19
2023-01-25T20:36:17.958Z,101409.97
2023-01-25T20:38:44.302Z,101411.06
2023-01-25T20:41:15.480Z,101411.66
2023-01-25T20:43:48.791Z,101418.75
2023-01-25T20:46:15.926Z,101409.97
2023-01-25T20:48:42.623Z,101411.31
2023-01-25T20:51:10.563Z,101404.88
2023-01-25T20:53:37.597Z,101414.53
2023-01-25T20:56:04.074Z,101414.19
2023-01-25T20:58:33.294Z,101407.56
2023-01-25T21:00:59.705Z,101397.09
2023-01-25T21:03:27.566Z,101389.34
2023-01-25T21:05:57.319Z,101386.53
2023-01-25T21:08:24.883Z,101387.09
2023-01-25T21:10:53.626Z,101388.19
2023-01-25T21:13:20.391Z,101388.69
2023-01-25T21:16:15.341Z,101382.50
2023-01-25T21:18:43.367Z,101392.75
2023-01-25T21:21:17.107Z,101387.50
2023-01-25T21:23:47.392Z,101377.25
2023-01-25T21:26:25.360Z,101372.53
2023-01-25T21:28:52.098Z,101374.13
2023-01-25T21:31:39.215Z,101368.22
2023-01-25T21:34:06.291Z,101368.72
2023-01-25T21:36:33.023Z,101368.47
2023-01-25T21:38:59.938Z,101360.16
2023-01-25T21:41:29.698Z,101360.00
2023-01-25T21:44:16.426Z,101352.06
2023-01-25T21:46:51.374Z,101354.91
2023-01-25T21:49:45.747Z,101359.66
2023-01-25T21:52:12.071Z,101350.09
2023-01-25T21:54:38.626Z,101360.84
2023-01-25T21:57:08.334Z,101362.38
2023-01-25T21:59:39.672Z,101347.47
2023-01-25T22:02:07.799Z,101343.81
2023-01-25T22:04:35.890Z,101334.94
2023-01-25T22:07:03.035Z,101332.81
2023-01-25T22:09:31.826Z,101326.47
2023-01-25T22:11:58.459Z,101326.22
2023-01-25T22:14:24.829Z,101316.28
2023-01-25T22:16:51.861Z,101301.66
2023-01-25T22:19:18.664Z,101299.50
2023-01-25T22:21:45.252Z,101297.00
2023-01-25T22:24:12.001Z,101287.69
2023-01-25T22:26:47.657Z,101287.69
2023-01-25T22:29:14.934Z,101287.94
2023-01-25T22:31:41.481Z,101279.41
2023-01-25T22:34:08.011Z,101276.75
2023-01-25T22:36:34.785Z,101276.66
2023-01-25T22:39:01.166Z,101279.41
2023-01-25T22:41:32.358Z,101287.84
2023-01-25T22:43:58.703Z,101286.34
2023-01-25T22:46:27.057Z,101287.78
2023-01-25T22:48:53.447Z,101284.16
2023-01-25T22:51:23.445Z,101276.25
2023-01-25T22:53:51.567Z,101275.81
2023-01-25T22:56:20.139Z,101271.06
2023-01-25T22:58:47.496Z,101274.97
2023-01-25T23:01:19.381Z,101264.84
2023-01-25T23:03:46.176Z,101261.78
2023-01-25T23:06:14.785Z,101258.41
2023-01-25T23:08:41.718Z,101260.69
2023-01-25T23:11:13.662Z,101259.25
2023-01-25T23:13:40.566Z,101248.06
2023-01-25T23:16:09.248Z,101259.25
2023-01-25T23:18:51.263Z,101256.00
2023-01-25T23:21:20.144Z,101258.75
2023-01-25T23:23:47.217Z,101247.88
2023-01-25T23:26:15.222Z,101241.28
2023-01-25T23:28:42.166Z,101239.81
2023-01-25T23:31:18.688Z,101246.88
2023-01-25T23:33:46.355Z,101245.53
2023-01-25T23:36:15.539Z,101238.16
2023-01-25T23:38:42.861Z,101235.38
2023-01-25T23:41:09.295Z,101222.34
2023-01-25T23:43:36.311Z,101222.47
2023-01-25T23:46:02.890Z,101228.44
2023-01-25T23:48:29.287Z,101214.47
2023-01-25T23:50:57.681Z,101209.13
2023-01-25T23:53:24.579Z,101210.56
2023-01-25T23:55:55.534Z,101198.28
2023-01-25T23:58:22.163Z,101193.72
